sensor_id;sensor_type;location;lat;lon;timestamp;temperature;humidity
52709;DHT22;38606;52.986;6.980;2023-02-28T00:01:22;4.20;99.90
52709;DHT22;38606;52.986;6.980;2023-02-28T00:03:48;4.20;99.90
52709;DHT22;38606;52.986;6.980;2023-02-28T00:06:13;4.10;99.90
52709;DHT22;38606;52.986;6.980;2023-02-28T00:08:39;4.20;99.90
52709;DHT22;38606;52.986;6.980;2023-02-28T00:11:07;4.20;99.90
52709;DHT22;38606;52.986;6.980;2023-02-28T00:13:39;5.40;99.90
52709;DHT22;38606;52.986;6.980;2023-02-28T00:16:11;4.30;99.90
52709;DHT22;38606;52.986;6.980;2023-02-28T00:18:37;4.40;99.90
52709;DHT22;38606;52.986;6.980;2023-02-28T00:21:04;4.90;99.90
52709;DHT22;38606;52.986;6.980;2023-02-28T00:23:29;4.40;99.90
52709;DHT22;38606;52.986;6.980;2023-02-28T00:25:55;4.00;99.90
52709;DHT22;38606;52.986;6.980;2023-02-28T00:28:21;4.30;99.90
52709;DHT22;38606;52.986;6.980;2023-02-28T00:30:47;4.70;99.90
52709;DHT22;38606;52.986;6.980;2023-02-28T00:33:13;4.20;99.90
52709;DHT22;38606;52.986;6.980;2023-02-28T00:35:39;4.10;99.90
52709;DHT22;38606;52.986;6.980;2023-02-28T00:38:04;4.20;99.90
52709;DHT22;38606;52.986;6.980;2023-02-28T00:40:31;4.10;99.90
52709;DHT22;38606;52.986;6.980;2023-02-28T00:42:57;4.30;99.90
52709;DHT22;38606;52.986;6.980;2023-02-28T00:45:23;5.30;99.90
52709;DHT22;38606;52.986;6.980;2023-02-28T00:47:48;5.30;99.90
52709;DHT22;38606;52.986;6.980;2023-02-28T00:50:18;4.00;99.90
52709;DHT22;38606;52.986;6.980;2023-02-28T00:52:45;3.90;99.90
52709;DHT22;38606;52.986;6.980;2023-02-28T00:55:12;5.20;99.90
52709;DHT22;38606;52.986;6.980;2023-02-28T00:57:37;5.30;99.90
52709;DHT22;38606;52.986;6.980;2023-02-28T01:00:04;4.30;99.90
52709;DHT22;38606;52.986;6.980;2023-02-28T01:02:30;4.00;99.90
52709;DHT22;38606;52.986;6.980;2023-02-28T01:04:55;4.00;99.90
52709;DHT22;38606;52.986;6.980;2023-02-28T01:07:23;5.00;99.90
52709;DHT22;38606;52.986;6.980;2023-02-28T01:09:49;4.10;99.90
52709;DHT22;38606;52.986;6.980;2023-02-28T01:12:15;4.10;99.90
52709;DHT22;38606;52.986;6.980;2023-02-28T01:14:41;4.10;99.90
52709;DHT22;38606;52.986;6.980;2023-02-28T01:17:07;3.90;99.90
52709;DHT22;38606;52.986;6.980;2023-02-28T01:19:33;4.50;99.90
52709;DHT22;38606;52.986;6.980;2023-02-28T01:22:03;4.10;99.90
52709;DHT22;38606;52.986;6.980;2023-02-28T01:24:30;5.10;99.90
52709;DHT22;38606;52.986;6.980;2023-02-28T01:26:55;4.30;99.90
52709;DHT22;38606;52.986;6.980;2023-02-28T01:29:21;4.30;99.90
52709;DHT22;38606;52.986;6.980;2023-02-28T01:31:47;4.30;99.90
52709;DHT22;38606;52.986;6.980;2023-02-28T01:34:12;4.70;99.90
52709;DHT22;38606;52.986;6.980;2023-02-28T01:36:38;4.00;99.90
52709;DHT22;38606;52.986;6.980;2023-02-28T01:39:04;4.70;99.90
52709;DHT22;38606;52.986;6.980;2023-02-28T01:41:32;4.70;99.90
52709;DHT22;38606;52.986;6.980;2023-02-28T01:44:02;4.30;99.90
52709;DHT22;38606;52.986;6.980;2023-02-28T01:46:33;4.90;99.90
52709;DHT22;38606;52.986;6.980;2023-02-28T01:49:13;4.40;99.90
52709;DHT22;38606;52.986;6.980;2023-02-28T01:51:52;5.00;99.90
52709;DHT22;38606;52.986;6.980;2023-02-28T01:54:26;4.50;99.90
52709;DHT22;38606;52.986;6.980;2023-02-28T01:57:01;4.10;99.90
52709;DHT22;38606;52.986;6.980;2023-02-28T01:59:34;5.80;99.90
52709;DHT22;38606;52.986;6.980;2023-02-28T02:02:02;5.40;99.90
52709;DHT22;38606;52.986;6.980;2023-02-28T02:04:33;4.90;99.90
52709;DHT22;38606;52.986;6.980;2023-02-28T02:06:59;4.20;99.90
52709;DHT22;38606;52.986;6.980;2023-02-28T02:09:25;4.40;99.90
52709;DHT22;38606;52.986;6.980;2023-02-28T02:11:54;4.70;99.90
52709;DHT22;38606;52.986;6.980;2023-02-28T02:17:20;4.00;99.90
52709;DHT22;38606;52.986;6.980;2023-02-28T02:28:05;4.00;99.90
52709;DHT22;38606;52.986;6.980;2023-02-28T02:36:33;4.10;99.90
52709;DHT22;38606;52.986;6.980;2023-02-28T02:39:23;4.40;99.90
52709;DHT22;38606;52.986;6.980;2023-02-28T02:41:54;4.00;99.90
52709;DHT22;38606;52.986;6.980;2023-02-28T02:44:28;4.10;99.90
52709;DHT22;38606;52.986;6.980;2023-02-28T02:47:03;4.20;99.90
52709;DHT22;38606;52.986;6.980;2023-02-28T02:49:32;4.20;99.90
52709;DHT22;38606;52.986;6.980;2023-02-28T02:52:02;4.10;99.90
52709;DHT22;38606;52.986;6.980;2023-02-28T02:54:31;4.00;99.90
52709;DHT22;38606;52.986;6.980;2023-02-28T02:57:02;4.10;99.90
52709;DHT22;38606;52.986;6.980;2023-02-28T02:59:29;5.10;99.90
52709;DHT22;38606;52.986;6.980;2023-02-28T03:01:59;4.10;99.90
52709;DHT22;38606;52.986;6.980;2023-02-28T03:04:32;4.10;99.90
52709;DHT22;38606;52.986;6.980;2023-02-28T03:06:58;3.80;99.90
52709;DHT22;38606;52.986;6.980;2023-02-28T03:09:25;4.00;99.90
52709;DHT22;38606;52.986;6.980;2023-02-28T03:11:54;3.90;99.90
52709;DHT22;38606;52.986;6.980;2023-02-28T03:17:05;4.00;99.90
52709;DHT22;38606;52.986;6.980;2023-02-28T03:19:52;4.00;99.90
52709;DHT22;38606;52.986;6.980;2023-02-28T03:30:52;5.10;99.90
52709;DHT22;38606;52.986;6.980;2023-02-28T03:33:51;4.10;99.90
52709;DHT22;38606;52.986;6.980;2023-02-28T03:36:23;3.90;99.90
52709;DHT22;38606;52.986;6.980;2023-02-28T03:41:27;4.70;99.90
52709;DHT22;38606;52.986;6.980;2023-02-28T03:44:04;5.40;99.90
52709;DHT22;38606;52.986;6.980;2023-02-28T03:46:34;4.00;99.90
52709;DHT22;38606;52.986;6.980;2023-02-28T03:49:07;3.90;99.90
52709;DHT22;38606;52.986;6.980;2023-02-28T03:51:38;4.00;99.90
52709;DHT22;38606;52.986;6.980;2023-02-28T03:54:27;3.90;99.90
52709;DHT22;38606;52.986;6.980;2023-02-28T03:57:03;4.00;99.90
52709;DHT22;38606;52.986;6.980;2023-02-28T03:59:36;4.00;99.90
52709;DHT22;38606;52.986;6.980;2023-02-28T04:02:03;3.90;99.90
52709;DHT22;38606;52.986;6.980;2023-02-28T04:04:29;4.50;99.90
52709;DHT22;38606;52.986;6.980;2023-02-28T04:07:07;3.90;99.90
52709;DHT22;38606;52.986;6.980;2023-02-28T04:09:33;3.90;99.90
52709;DHT22;38606;52.986;6.980;2023-02-28T04:12:00;4.10;99.90
52709;DHT22;38606;52.986;6.980;2023-02-28T04:14:26;3.50;99.90
52709;DHT22;38606;52.986;6.980;2023-02-28T04:16:52;5.30;99.90
52709;DHT22;38606;52.986;6.980;2023-02-28T04:19:18;3.90;99.90
52709;DHT22;38606;52.986;6.980;2023-02-28T04:21:46;4.70;99.90
52709;DHT22;38606;52.986;6.980;2023-02-28T04:24:21;5.20;99.90
52709;DHT22;38606;52.986;6.980;2023-02-28T04:26:49;3.80;99.90
52709;DHT22;38606;52.986;6.980;2023-02-28T04:29:20;4.40;99.90
52709;DHT22;38606;52.986;6.980;2023-02-28T04:31:46;5.00;99.90
52709;DHT22;38606;52.986;6.980;2023-02-28T04:34:11;4.30;99.90
52709;DHT22;38606;52.986;6.980;2023-02-28T04:36:37;4.70;99.90
52709;DHT22;38606;52.986;6.980;2023-02-28T04:39:03;4.00;99.90
52709;DHT22;38606;52.986;6.980;2023-02-28T04:41:29;4.00;99.90
52709;DHT22;38606;52.986;6.980;2023-02-28T04:43:55;3.80;99.90
52709;DHT22;38606;52.986;6.980;2023-02-28T04:46:22;4.90;99.90
52709;DHT22;38606;52.986;6.980;2023-02-28T04:48:48;4.20;99.90
52709;DHT22;38606;52.986;6.980;2023-02-28T04:51:16;3.90;99.90
52709;DHT22;38606;52.986;6.980;2023-02-28T04:53:43;4.00;99.90
52709;DHT22;38606;52.986;6.980;2023-02-28T04:56:12;3.80;99.90
52709;DHT22;38606;52.986;6.980;2023-02-28T04:58:39;3.90;99.90
52709;DHT22;38606;52.986;6.980;2023-02-28T05:01:28;4.10;99.90
52709;DHT22;38606;52.986;6.980;2023-02-28T05:03:56;4.00;99.90
52709;DHT22;38606;52.986;6.980;2023-02-28T05:06:24;3.80;99.90
52709;DHT22;38606;52.986;6.980;2023-02-28T05:08:51;3.70;99.90
52709;DHT22;38606;52.986;6.980;2023-02-28T05:11:22;3.70;99.90
52709;DHT22;38606;52.986;6.980;2023-02-28T05:13:49;3.90;99.90
52709;DHT22;38606;52.986;6.980;2023-02-28T05:16:15;3.90;99.90
52709;DHT22;38606;52.986;6.980;2023-02-28T05:18:40;5.00;99.90
52709;DHT22;38606;52.986;6.980;2023-02-28T05:21:12;3.90;99.90
52709;DHT22;38606;52.986;6.980;2023-02-28T05:23:49;4.00;99.90
52709;DHT22;38606;52.986;6.980;2023-02-28T05:26:14;3.70;99.90
52709;DHT22;38606;52.986;6.980;2023-02-28T05:28:40;3.80;99.90
52709;DHT22;38606;52.986;6.980;2023-02-28T05:31:06;4.80;99.90
52709;DHT22;38606;52.986;6.980;2023-02-28T05:33:31;3.90;99.90
52709;DHT22;38606;52.986;6.980;2023-02-28T05:35:57;3.90;99.90
52709;DHT22;38606;52.986;6.980;2023-02-28T05:38:22;5.10;99.90
52709;DHT22;38606;52.986;6.980;2023-02-28T05:40:48;3.70;99.90
52709;DHT22;38606;52.986;6.980;2023-02-28T05:43:14;3.70;99.90
52709;DHT22;38606;52.986;6.980;2023-02-28T05:45:40;5.10;99.90
52709;DHT22;38606;52.986;6.980;2023-02-28T05:48:06;4.00;99.90
52709;DHT22;38606;52.986;6.980;2023-02-28T05:50:31;4.60;99.90
52709;DHT22;38606;52.986;6.980;2023-02-28T05:52:57;4.10;99.90
52709;DHT22;38606;52.986;6.980;2023-02-28T05:55:23;3.90;99.90
52709;DHT22;38606;52.986;6.980;2023-02-28T05:57:48;3.80;99.90
52709;DHT22;38606;52.986;6.980;2023-02-28T06:00:14;4.80;99.90
52709;DHT22;38606;52.986;6.980;2023-02-28T06:02:41;3.80;99.90
52709;DHT22;38606;52.986;6.980;2023-02-28T06:05:17;3.70;99.90
52709;DHT22;38606;52.986;6.980;2023-02-28T06:07:44;3.60;99.90
52709;DHT22;38606;52.986;6.980;2023-02-28T06:10:10;4.40;99.90
52709;DHT22;38606;52.986;6.980;2023-02-28T06:12:37;3.60;99.90
52709;DHT22;38606;52.986;6.980;2023-02-28T06:15:03;3.70;99.90
52709;DHT22;38606;52.986;6.980;2023-02-28T06:17:29;3.60;99.90
52709;DHT22;38606;52.986;6.980;2023-02-28T06:19:54;3.70;99.90
52709;DHT22;38606;52.986;6.980;2023-02-28T06:22:20;3.50;99.90
52709;DHT22;38606;52.986;6.980;2023-02-28T06:24:46;3.70;99.90
52709;DHT22;38606;52.986;6.980;2023-02-28T06:27:12;3.60;99.90
52709;DHT22;38606;52.986;6.980;2023-02-28T06:29:37;3.60;99.90
52709;DHT22;38606;52.986;6.980;2023-02-28T06:32:05;3.80;99.90
52709;DHT22;38606;52.986;6.980;2023-02-28T06:34:31;4.10;99.90
52709;DHT22;38606;52.986;6.980;2023-02-28T06:37:00;3.60;99.90
52709;DHT22;38606;52.986;6.980;2023-02-28T06:39:29;3.60;99.90
52709;DHT22;38606;52.986;6.980;2023-02-28T06:41:54;4.10;99.90
52709;DHT22;38606;52.986;6.980;2023-02-28T06:44:21;3.70;99.90
52709;DHT22;38606;52.986;6.980;2023-02-28T06:46:48;3.60;99.90
52709;DHT22;38606;52.986;6.980;2023-02-28T06:49:14;4.60;99.90
52709;DHT22;38606;52.986;6.980;2023-02-28T06:51:43;3.70;99.90
52709;DHT22;38606;52.986;6.980;2023-02-28T06:54:11;3.60;99.90
52709;DHT22;38606;52.986;6.980;2023-02-28T06:56:37;4.20;99.90
52709;DHT22;38606;52.986;6.980;2023-02-28T06:59:03;4.30;99.90
52709;DHT22;38606;52.986;6.980;2023-02-28T07:01:29;4.00;99.90
52709;DHT22;38606;52.986;6.980;2023-02-28T07:03:57;3.50;99.90
52709;DHT22;38606;52.986;6.980;2023-02-28T07:06:24;4.70;99.90
52709;DHT22;38606;52.986;6.980;2023-02-28T07:08:51;3.70;99.90
52709;DHT22;38606;52.986;6.980;2023-02-28T07:11:21;3.70;99.90
52709;DHT22;38606;52.986;6.980;2023-02-28T07:13:49;4.70;99.90
52709;DHT22;38606;52.986;6.980;2023-02-28T07:16:16;3.60;99.90
52709;DHT22;38606;52.986;6.980;2023-02-28T07:18:41;5.30;99.90
52709;DHT22;38606;52.986;6.980;2023-02-28T07:21:09;4.00;99.90
52709;DHT22;38606;52.986;6.980;2023-02-28T07:23:35;4.00;99.90
52709;DHT22;38606;52.986;6.980;2023-02-28T07:26:03;4.00;99.90
52709;DHT22;38606;52.986;6.980;2023-02-28T07:28:29;3.90;99.90
52709;DHT22;38606;52.986;6.980;2023-02-28T07:30:55;4.00;99.90
52709;DHT22;38606;52.986;6.980;2023-02-28T07:33:20;4.00;99.90
52709;DHT22;38606;52.986;6.980;2023-02-28T07:35:46;3.90;99.90
52709;DHT22;38606;52.986;6.980;2023-02-28T07:38:12;5.40;99.90
52709;DHT22;38606;52.986;6.980;2023-02-28T07:40:39;4.90;99.90
52709;DHT22;38606;52.986;6.980;2023-02-28T07:43:05;4.40;99.90
52709;DHT22;38606;52.986;6.980;2023-02-28T07:45:31;4.20;99.90
52709;DHT22;38606;52.986;6.980;2023-02-28T07:48:00;4.20;99.90
52709;DHT22;38606;52.986;6.980;2023-02-28T07:50:26;5.30;99.90
52709;DHT22;38606;52.986;6.980;2023-02-28T07:52:57;4.10;99.90
52709;DHT22;38606;52.986;6.980;2023-02-28T07:55:23;4.30;99.90
52709;DHT22;38606;52.986;6.980;2023-02-28T07:57:49;4.50;99.90
52709;DHT22;38606;52.986;6.980;2023-02-28T08:00:15;5.40;99.90
52709;DHT22;38606;52.986;6.980;2023-02-28T08:02:40;4.50;99.90
52709;DHT22;38606;52.986;6.980;2023-02-28T08:05:07;4.50;99.90
52709;DHT22;38606;52.986;6.980;2023-02-28T08:07:32;4.70;99.90
52709;DHT22;38606;52.986;6.980;2023-02-28T08:09:59;5.10;99.90
52709;DHT22;38606;52.986;6.980;2023-02-28T08:12:25;5.60;99.90
52709;DHT22;38606;52.986;6.980;2023-02-28T08:14:51;5.60;99.90
52709;DHT22;38606;52.986;6.980;2023-02-28T08:17:16;4.90;99.90
52709;DHT22;38606;52.986;6.980;2023-02-28T08:19:44;5.80;99.90
52709;DHT22;38606;52.986;6.980;2023-02-28T08:22:10;5.10;99.90
52709;DHT22;38606;52.986;6.980;2023-02-28T08:24:36;5.40;99.90
52709;DHT22;38606;52.986;6.980;2023-02-28T08:27:01;5.10;99.90
52709;DHT22;38606;52.986;6.980;2023-02-28T08:29:27;5.10;99.90
52709;DHT22;38606;52.986;6.980;2023-02-28T08:31:53;5.20;99.90
52709;DHT22;38606;52.986;6.980;2023-02-28T08:34:18;5.30;99.90
52709;DHT22;38606;52.986;6.980;2023-02-28T08:36:44;5.40;99.90
52709;DHT22;38606;52.986;6.980;2023-02-28T08:39:12;5.90;99.90
52709;DHT22;38606;52.986;6.980;2023-02-28T08:41:38;5.40;99.90
52709;DHT22;38606;52.986;6.980;2023-02-28T08:44:03;5.70;99.90
52709;DHT22;38606;52.986;6.980;2023-02-28T08:46:29;5.50;99.90
52709;DHT22;38606;52.986;6.980;2023-02-28T08:48:56;5.30;99.90
52709;DHT22;38606;52.986;6.980;2023-02-28T08:51:26;6.40;99.90
52709;DHT22;38606;52.986;6.980;2023-02-28T08:53:56;5.50;99.90
52709;DHT22;38606;52.986;6.980;2023-02-28T08:56:23;5.50;99.90
52709;DHT22;38606;52.986;6.980;2023-02-28T08:58:50;5.70;99.90
52709;DHT22;38606;52.986;6.980;2023-02-28T09:01:18;5.70;99.90
52709;DHT22;38606;52.986;6.980;2023-02-28T09:03:45;6.70;99.90
52709;DHT22;38606;52.986;6.980;2023-02-28T09:06:15;5.90;99.90
52709;DHT22;38606;52.986;6.980;2023-02-28T09:08:42;5.80;99.90
52709;DHT22;38606;52.986;6.980;2023-02-28T09:11:08;6.00;99.90
52709;DHT22;38606;52.986;6.980;2023-02-28T09:13:34;6.60;99.90
52709;DHT22;38606;52.986;6.980;2023-02-28T09:16:02;6.00;99.90
52709;DHT22;38606;52.986;6.980;2023-02-28T09:18:29;6.10;99.90
52709;DHT22;38606;52.986;6.980;2023-02-28T09:20:55;6.30;99.90
52709;DHT22;38606;52.986;6.980;2023-02-28T09:23:21;6.30;99.90
52709;DHT22;38606;52.986;6.980;2023-02-28T09:25:51;6.10;99.90
52709;DHT22;38606;52.986;6.980;2023-02-28T09:28:18;6.10;99.90
52709;DHT22;38606;52.986;6.980;2023-02-28T09:30:45;6.90;99.90
52709;DHT22;38606;52.986;6.980;2023-02-28T09:33:13;6.40;99.90
52709;DHT22;38606;52.986;6.980;2023-02-28T09:35:38;6.40;99.90
52709;DHT22;38606;52.986;6.980;2023-02-28T09:38:04;6.30;99.90
52709;DHT22;38606;52.986;6.980;2023-02-28T09:40:31;6.30;99.90
52709;DHT22;38606;52.986;6.980;2023-02-28T09:42:58;6.30;99.90
52709;DHT22;38606;52.986;6.980;2023-02-28T09:45:35;6.40;99.90
52709;DHT22;38606;52.986;6.980;2023-02-28T09:48:07;6.50;99.90
52709;DHT22;38606;52.986;6.980;2023-02-28T09:50:40;6.30;99.90
52709;DHT22;38606;52.986;6.980;2023-02-28T09:53:25;6.30;99.90
52709;DHT22;38606;52.986;6.980;2023-02-28T09:55:58;6.20;99.90
52709;DHT22;38606;52.986;6.980;2023-02-28T09:58:36;6.20;99.90
52709;DHT22;38606;52.986;6.980;2023-02-28T10:01:31;7.20;99.90
52709;DHT22;38606;52.986;6.980;2023-02-28T10:03:56;7.70;99.90
52709;DHT22;38606;52.986;6.980;2023-02-28T10:06:28;6.70;99.90
52709;DHT22;38606;52.986;6.980;2023-02-28T10:11:25;6.70;99.90
52709;DHT22;38606;52.986;6.980;2023-02-28T10:14:13;6.90;99.90
52709;DHT22;38606;52.986;6.980;2023-02-28T10:16:52;6.90;99.90
52709;DHT22;38606;52.986;6.980;2023-02-28T10:22:37;7.30;99.90
52709;DHT22;38606;52.986;6.980;2023-02-28T10:25:25;6.90;99.90
52709;DHT22;38606;52.986;6.980;2023-02-28T10:28:01;7.10;99.90
52709;DHT22;38606;52.986;6.980;2023-02-28T10:30:31;7.00;99.90
52709;DHT22;38606;52.986;6.980;2023-02-28T10:32:57;7.00;99.90
52709;DHT22;38606;52.986;6.980;2023-02-28T10:35:24;6.90;99.90
52709;DHT22;38606;52.986;6.980;2023-02-28T10:37:55;7.00;99.90
52709;DHT22;38606;52.986;6.980;2023-02-28T10:45:58;7.10;99.90
52709;DHT22;38606;52.986;6.980;2023-02-28T10:48:34;7.20;99.90
52709;DHT22;38606;52.986;6.980;2023-02-28T10:51:00;7.20;99.90
52709;DHT22;38606;52.986;6.980;2023-02-28T10:53:38;7.40;99.90
52709;DHT22;38606;52.986;6.980;2023-02-28T11:01:37;7.70;99.90
52709;DHT22;38606;52.986;6.980;2023-02-28T11:04:17;7.80;99.90
52709;DHT22;38606;52.986;6.980;2023-02-28T11:06:44;7.80;99.90
52709;DHT22;38606;52.986;6.980;2023-02-28T11:09:30;7.90;99.90
52709;DHT22;38606;52.986;6.980;2023-02-28T11:11:56;7.90;99.90
52709;DHT22;38606;52.986;6.980;2023-02-28T11:14:26;8.50;99.90
52709;DHT22;38606;52.986;6.980;2023-02-28T11:16:54;8.10;99.90
52709;DHT22;38606;52.986;6.980;2023-02-28T11:19:38;8.10;99.90
52709;DHT22;38606;52.986;6.980;2023-02-28T11:22:05;8.10;99.90
52709;DHT22;38606;52.986;6.980;2023-02-28T11:24:39;8.60;99.90
52709;DHT22;38606;52.986;6.980;2023-02-28T11:27:06;8.20;99.90
52709;DHT22;38606;52.986;6.980;2023-02-28T11:29:33;10.10;99.90
52709;DHT22;38606;52.986;6.980;2023-02-28T11:32:25;8.10;99.90
52709;DHT22;38606;52.986;6.980;2023-02-28T11:35:24;8.10;99.90
52709;DHT22;38606;52.986;6.980;2023-02-28T11:37:52;8.10;99.90
52709;DHT22;38606;52.986;6.980;2023-02-28T11:40:22;8.20;99.90
52709;DHT22;38606;52.986;6.980;2023-02-28T11:48:25;8.40;99.90
52709;DHT22;38606;52.986;6.980;2023-02-28T11:56:52;8.70;99.90
52709;DHT22;38606;52.986;6.980;2023-02-28T12:02:24;8.70;99.90
52709;DHT22;38606;52.986;6.980;2023-02-28T12:10:22;8.80;99.90
52709;DHT22;38606;52.986;6.980;2023-02-28T12:32:18;8.30;99.90
52709;DHT22;38606;52.986;6.980;2023-02-28T12:34:52;8.30;99.90
52709;DHT22;38606;52.986;6.980;2023-02-28T12:37:40;8.40;99.90
52709;DHT22;38606;52.986;6.980;2023-02-28T12:40:13;8.30;99.90
52709;DHT22;38606;52.986;6.980;2023-02-28T12:42:43;8.40;99.90
52709;DHT22;38606;52.986;6.980;2023-02-28T12:45:22;8.50;99.90
52709;DHT22;38606;52.986;6.980;2023-02-28T12:47:57;8.80;99.90
52709;DHT22;38606;52.986;6.980;2023-02-28T12:50:26;8.40;99.90
52709;DHT22;38606;52.986;6.980;2023-02-28T12:53:01;8.30;99.90
52709;DHT22;38606;52.986;6.980;2023-02-28T12:58:34;8.50;99.90
52709;DHT22;38606;52.986;6.980;2023-02-28T13:07:12;8.40;99.90
52709;DHT22;38606;52.986;6.980;2023-02-28T13:09:55;8.40;99.90
52709;DHT22;38606;52.986;6.980;2023-02-28T13:12:21;6.50;99.90
52709;DHT22;38606;52.986;6.980;2023-02-28T13:14:49;8.30;99.90
52709;DHT22;38606;52.986;6.980;2023-02-28T13:17:22;9.20;99.90
52709;DHT22;38606;52.986;6.980;2023-02-28T13:22:41;8.40;99.90
52709;DHT22;38606;52.986;6.980;2023-02-28T13:27:50;8.10;99.90
52709;DHT22;38606;52.986;6.980;2023-02-28T13:33:22;8.10;99.90
52709;DHT22;38606;52.986;6.980;2023-02-28T13:38:34;9.30;99.90
52709;DHT22;38606;52.986;6.980;2023-02-28T13:44:06;8.00;99.90
52709;DHT22;38606;52.986;6.980;2023-02-28T13:46:33;8.10;99.90
52709;DHT22;38606;52.986;6.980;2023-02-28T13:54:25;8.20;99.90
52709;DHT22;38606;52.986;6.980;2023-02-28T14:02:46;8.10;99.90
52709;DHT22;38606;52.986;6.980;2023-02-28T14:05:19;8.00;99.90
52709;DHT22;38606;52.986;6.980;2023-02-28T14:07:58;8.00;99.90
52709;DHT22;38606;52.986;6.980;2023-02-28T14:10:29;7.50;99.90
52709;DHT22;38606;52.986;6.980;2023-02-28T14:18:29;7.60;99.90
52709;DHT22;38606;52.986;6.980;2023-02-28T14:23:43;8.60;99.90
52709;DHT22;38606;52.986;6.980;2023-02-28T14:32:10;7.40;99.90
52709;DHT22;38606;52.986;6.980;2023-02-28T14:37:17;8.70;99.90
52709;DHT22;38606;52.986;6.980;2023-02-28T14:39:44;7.30;99.90
52709;DHT22;38606;52.986;6.980;2023-02-28T14:42:34;7.60;99.90
52709;DHT22;38606;52.986;6.980;2023-02-28T14:45:01;7.50;99.90
52709;DHT22;38606;52.986;6.980;2023-02-28T14:47:33;7.40;99.90
52709;DHT22;38606;52.986;6.980;2023-02-28T14:50:03;7.30;99.90
52709;DHT22;38606;52.986;6.980;2023-02-28T14:52:31;7.30;99.90
52709;DHT22;38606;52.986;6.980;2023-02-28T14:55:05;7.50;99.90
52709;DHT22;38606;52.986;6.980;2023-02-28T14:57:35;7.30;99.90
52709;DHT22;38606;52.986;6.980;2023-02-28T15:02:34;7.10;99.90
52709;DHT22;38606;52.986;6.980;2023-02-28T15:05:50;7.20;99.90
52709;DHT22;38606;52.986;6.980;2023-02-28T15:07:48;7.30;99.90
52709;DHT22;38606;52.986;6.980;2023-02-28T15:10:26;7.20;99.90
52709;DHT22;38606;52.986;6.980;2023-02-28T15:13:01;7.00;99.90
52709;DHT22;38606;52.986;6.980;2023-02-28T15:19:02;7.10;99.90
52709;DHT22;38606;52.986;6.980;2023-02-28T15:21:38;7.10;99.90
52709;DHT22;38606;52.986;6.980;2023-02-28T15:24:38;7.30;99.90
52709;DHT22;38606;52.986;6.980;2023-02-28T15:27:13;6.90;99.90
52709;DHT22;38606;52.986;6.980;2023-02-28T15:29:46;7.60;99.90
52709;DHT22;38606;52.986;6.980;2023-02-28T15:32:38;6.90;99.90
52709;DHT22;38606;52.986;6.980;2023-02-28T15:35:37;6.90;99.90
52709;DHT22;38606;52.986;6.980;2023-02-28T15:40:45;6.70;99.90
52709;DHT22;38606;52.986;6.980;2023-02-28T15:43:39;6.70;99.90
52709;DHT22;38606;52.986;6.980;2023-02-28T15:46:13;7.10;99.90
52709;DHT22;38606;52.986;6.980;2023-02-28T15:48:53;6.80;99.90
52709;DHT22;38606;52.986;6.980;2023-02-28T15:51:21;7.70;99.90
52709;DHT22;38606;52.986;6.980;2023-02-28T15:54:05;6.90;99.90
52709;DHT22;38606;52.986;6.980;2023-02-28T15:56:38;6.60;99.90
52709;DHT22;38606;52.986;6.980;2023-02-28T15:59:14;6.80;99.90
52709;DHT22;38606;52.986;6.980;2023-02-28T16:01:41;6.10;99.90
52709;DHT22;38606;52.986;6.980;2023-02-28T16:04:16;6.50;99.90
52709;DHT22;38606;52.986;6.980;2023-02-28T16:07:12;6.50;99.90
52709;DHT22;38606;52.986;6.980;2023-02-28T16:09:38;6.70;99.90
52709;DHT22;38606;52.986;6.980;2023-02-28T16:12:04;6.60;99.90
52709;DHT22;38606;52.986;6.980;2023-02-28T16:14:30;6.60;99.90
52709;DHT22;38606;52.986;6.980;2023-02-28T16:17:03;6.50;99.90
52709;DHT22;38606;52.986;6.980;2023-02-28T16:19:30;7.20;99.90
52709;DHT22;38606;52.986;6.980;2023-02-28T16:21:56;7.00;99.90
52709;DHT22;38606;52.986;6.980;2023-02-28T16:24:22;6.40;99.90
52709;DHT22;38606;52.986;6.980;2023-02-28T16:26:49;6.40;99.90
52709;DHT22;38606;52.986;6.980;2023-02-28T16:29:35;7.00;99.90
52709;DHT22;38606;52.986;6.980;2023-02-28T16:32:04;6.40;99.90
52709;DHT22;38606;52.986;6.980;2023-02-28T16:34:30;6.60;99.90
52709;DHT22;38606;52.986;6.980;2023-02-28T16:36:56;6.20;99.90
52709;DHT22;38606;52.986;6.980;2023-02-28T16:39:22;7.50;99.90
52709;DHT22;38606;52.986;6.980;2023-02-28T16:41:49;6.20;99.90
52709;DHT22;38606;52.986;6.980;2023-02-28T16:44:28;6.50;99.90
52709;DHT22;38606;52.986;6.980;2023-02-28T16:46:54;6.20;99.90
52709;DHT22;38606;52.986;6.980;2023-02-28T16:49:20;6.30;99.90
52709;DHT22;38606;52.986;6.980;2023-02-28T16:51:46;6.00;99.90
52709;DHT22;38606;52.986;6.980;2023-02-28T16:54:12;6.00;99.90
52709;DHT22;38606;52.986;6.980;2023-02-28T16:56:43;5.80;99.90
52709;DHT22;38606;52.986;6.980;2023-02-28T16:59:10;6.20;99.90
52709;DHT22;38606;52.986;6.980;2023-02-28T17:01:36;6.80;99.90
52709;DHT22;38606;52.986;6.980;2023-02-28T17:04:02;5.80;99.90
52709;DHT22;38606;52.986;6.980;2023-02-28T17:06:29;5.60;99.90
52709;DHT22;38606;52.986;6.980;2023-02-28T17:08:56;6.70;99.90
52709;DHT22;38606;52.986;6.980;2023-02-28T17:11:23;5.70;99.90
52709;DHT22;38606;52.986;6.980;2023-02-28T17:13:49;5.70;99.90
52709;DHT22;38606;52.986;6.980;2023-02-28T17:16:30;5.50;99.90
52709;DHT22;38606;52.986;6.980;2023-02-28T17:19:02;6.50;99.90
52709;DHT22;38606;52.986;6.980;2023-02-28T17:21:29;4.60;99.90
52709;DHT22;38606;52.986;6.980;2023-02-28T17:23:55;6.10;99.90
52709;DHT22;38606;52.986;6.980;2023-02-28T17:26:22;5.00;99.90
52709;DHT22;38606;52.986;6.980;2023-02-28T17:28:52;4.90;99.90
52709;DHT22;38606;52.986;6.980;2023-02-28T17:31:20;4.70;99.90
52709;DHT22;38606;52.986;6.980;2023-02-28T17:33:46;5.20;99.90
52709;DHT22;38606;52.986;6.980;2023-02-28T17:36:17;4.70;99.90
52709;DHT22;38606;52.986;6.980;2023-02-28T17:38:47;5.00;99.90
52709;DHT22;38606;52.986;6.980;2023-02-28T17:41:13;4.50;99.90
52709;DHT22;38606;52.986;6.980;2023-02-28T17:43:39;4.50;99.90
52709;DHT22;38606;52.986;6.980;2023-02-28T17:46:06;4.70;99.90
52709;DHT22;38606;52.986;6.980;2023-02-28T17:48:34;5.80;99.90
52709;DHT22;38606;52.986;6.980;2023-02-28T17:51:01;4.30;99.90
52709;DHT22;38606;52.986;6.980;2023-02-28T17:53:27;4.10;99.90
52709;DHT22;38606;52.986;6.980;2023-02-28T17:55:52;5.20;99.90
52709;DHT22;38606;52.986;6.980;2023-02-28T17:58:18;4.20;99.90
52709;DHT22;38606;52.986;6.980;2023-02-28T18:00:44;4.00;99.90
52709;DHT22;38606;52.986;6.980;2023-02-28T18:03:11;4.50;99.90
52709;DHT22;38606;52.986;6.980;2023-02-28T18:05:38;4.20;99.90
52709;DHT22;38606;52.986;6.980;2023-02-28T18:08:04;4.80;99.90
52709;DHT22;38606;52.986;6.980;2023-02-28T18:10:30;4.40;99.90
52709;DHT22;38606;52.986;6.980;2023-02-28T18:12:59;3.60;99.90
52709;DHT22;38606;52.986;6.980;2023-02-28T18:15:24;5.00;99.90
52709;DHT22;38606;52.986;6.980;2023-02-28T18:17:50;3.70;99.90
52709;DHT22;38606;52.986;6.980;2023-02-28T18:20:17;3.80;99.90
52709;DHT22;38606;52.986;6.980;2023-02-28T18:22:42;3.40;99.90
52709;DHT22;38606;52.986;6.980;2023-02-28T18:25:11;4.80;99.90
52709;DHT22;38606;52.986;6.980;2023-02-28T18:27:41;3.60;99.90